sensor_id;sensor_type;location;lat;lon;timestamp;temperature;humidity
36990;DHT22;22898;52.102;5.776;2022-08-03T00:01:18;28.70;82.50
36990;DHT22;22898;52.102;5.776;2022-08-03T00:03:44;28.60;82.50
36990;DHT22;22898;52.102;5.776;2022-08-03T00:06:10;28.50;82.70
36990;DHT22;22898;52.102;5.776;2022-08-03T00:08:35;28.50;82.90
36990;DHT22;22898;52.102;5.776;2022-08-03T00:11:01;28.40;83.10
36990;DHT22;22898;52.102;5.776;2022-08-03T00:13:27;28.30;83.60
36990;DHT22;22898;52.102;5.776;2022-08-03T00:15:53;28.30;83.80
36990;DHT22;22898;52.102;5.776;2022-08-03T00:18:19;28.30;83.60
36990;DHT22;22898;52.102;5.776;2022-08-03T00:20:44;28.30;83.40
36990;DHT22;22898;52.102;5.776;2022-08-03T00:23:10;28.20;83.30
36990;DHT22;22898;52.102;5.776;2022-08-03T00:25:36;28.10;83.60
36990;DHT22;22898;52.102;5.776;2022-08-03T00:28:03;28.10;83.90
36990;DHT22;22898;52.102;5.776;2022-08-03T00:30:29;28.00;83.80
36990;DHT22;22898;52.102;5.776;2022-08-03T00:32:55;27.90;83.80
36990;DHT22;22898;52.102;5.776;2022-08-03T00:35:21;27.80;84.30
36990;DHT22;22898;52.102;5.776;2022-08-03T00:37:46;27.80;84.50
36990;DHT22;22898;52.102;5.776;2022-08-03T00:40:14;27.70;84.50
36990;DHT22;22898;52.102;5.776;2022-08-03T00:45:18;27.70;84.50
36990;DHT22;22898;52.102;5.776;2022-08-03T00:47:44;27.60;84.50
36990;DHT22;22898;52.102;5.776;2022-08-03T00:50:10;27.60;84.60
36990;DHT22;22898;52.102;5.776;2022-08-03T00:52:36;27.50;85.70
36990;DHT22;22898;52.102;5.776;2022-08-03T00:55:03;27.50;85.00
36990;DHT22;22898;52.102;5.776;2022-08-03T00:57:30;27.50;84.90
36990;DHT22;22898;52.102;5.776;2022-08-03T00:59:56;27.50;85.00
36990;DHT22;22898;52.102;5.776;2022-08-03T01:02:25;27.50;84.90
36990;DHT22;22898;52.102;5.776;2022-08-03T01:04:51;27.30;85.10
36990;DHT22;22898;52.102;5.776;2022-08-03T01:10:16;27.20;85.40
36990;DHT22;22898;52.102;5.776;2022-08-03T01:15:56;27.10;85.70
36990;DHT22;22898;52.102;5.776;2022-08-03T01:18:36;27.10;85.80
36990;DHT22;22898;52.102;5.776;2022-08-03T01:21:09;27.10;85.80
36990;DHT22;22898;52.102;5.776;2022-08-03T01:31:52;26.90;86.30
36990;DHT22;22898;52.102;5.776;2022-08-03T01:34:19;26.90;86.40
36990;DHT22;22898;52.102;5.776;2022-08-03T01:36:51;26.90;86.60
36990;DHT22;22898;52.102;5.776;2022-08-03T01:39:19;26.90;86.50
36990;DHT22;22898;52.102;5.776;2022-08-03T01:41:52;26.80;86.50
36990;DHT22;22898;52.102;5.776;2022-08-03T01:44:27;26.80;86.70
36990;DHT22;22898;52.102;5.776;2022-08-03T01:46:57;26.80;86.60
36990;DHT22;22898;52.102;5.776;2022-08-03T01:49:24;26.80;86.70
36990;DHT22;22898;52.102;5.776;2022-08-03T01:51:52;26.80;87.10
36990;DHT22;22898;52.102;5.776;2022-08-03T01:54:19;26.80;87.20
36990;DHT22;22898;52.102;5.776;2022-08-03T01:56:47;26.80;87.10
36990;DHT22;22898;52.102;5.776;2022-08-03T01:59:15;26.80;87.30
36990;DHT22;22898;52.102;5.776;2022-08-03T02:01:43;26.80;87.20
36990;DHT22;22898;52.102;5.776;2022-08-03T02:04:14;26.80;87.30
36990;DHT22;22898;52.102;5.776;2022-08-03T02:06:42;26.80;87.20
36990;DHT22;22898;52.102;5.776;2022-08-03T02:09:11;26.80;87.20
36990;DHT22;22898;52.102;5.776;2022-08-03T02:11:37;26.70;87.00
36990;DHT22;22898;52.102;5.776;2022-08-03T02:14:07;26.70;87.40
36990;DHT22;22898;52.102;5.776;2022-08-03T02:16:33;26.70;87.10
36990;DHT22;22898;52.102;5.776;2022-08-03T02:19:02;26.70;87.00
36990;DHT22;22898;52.102;5.776;2022-08-03T02:21:29;26.70;87.00
36990;DHT22;22898;52.102;5.776;2022-08-03T02:23:57;26.60;87.10
36990;DHT22;22898;52.102;5.776;2022-08-03T02:26:23;26.60;87.30
36990;DHT22;22898;52.102;5.776;2022-08-03T02:28:52;26.60;86.70
36990;DHT22;22898;52.102;5.776;2022-08-03T02:31:23;26.60;87.30
36990;DHT22;22898;52.102;5.776;2022-08-03T02:33:52;26.50;87.30
36990;DHT22;22898;52.102;5.776;2022-08-03T02:36:30;26.50;87.00
36990;DHT22;22898;52.102;5.776;2022-08-03T02:39:00;26.50;86.40
36990;DHT22;22898;52.102;5.776;2022-08-03T02:41:31;26.40;86.70
36990;DHT22;22898;52.102;5.776;2022-08-03T02:43:59;26.30;86.60
36990;DHT22;22898;52.102;5.776;2022-08-03T02:46:30;26.30;86.80
36990;DHT22;22898;52.102;5.776;2022-08-03T02:48:59;26.30;86.70
36990;DHT22;22898;52.102;5.776;2022-08-03T02:51:30;26.40;87.00
36990;DHT22;22898;52.102;5.776;2022-08-03T02:53:57;26.30;87.50
36990;DHT22;22898;52.102;5.776;2022-08-03T02:56:26;26.20;87.70
36990;DHT22;22898;52.102;5.776;2022-08-03T02:58:52;26.10;88.10
36990;DHT22;22898;52.102;5.776;2022-08-03T03:01:21;26.10;88.20
36990;DHT22;22898;52.102;5.776;2022-08-03T03:03:49;26.10;87.90
36990;DHT22;22898;52.102;5.776;2022-08-03T03:06:16;26.10;88.00
36990;DHT22;22898;52.102;5.776;2022-08-03T03:08:44;26.10;88.30
36990;DHT22;22898;52.102;5.776;2022-08-03T03:11:12;26.00;88.80
36990;DHT22;22898;52.102;5.776;2022-08-03T03:13:38;25.90;89.40
36990;DHT22;22898;52.102;5.776;2022-08-03T03:16:05;25.80;90.00
36990;DHT22;22898;52.102;5.776;2022-08-03T03:18:33;25.80;90.00
36990;DHT22;22898;52.102;5.776;2022-08-03T03:21:00;25.80;90.00
36990;DHT22;22898;52.102;5.776;2022-08-03T03:23:27;25.80;90.30
36990;DHT22;22898;52.102;5.776;2022-08-03T03:25:54;25.80;90.20
36990;DHT22;22898;52.102;5.776;2022-08-03T03:28:24;25.80;90.20
36990;DHT22;22898;52.102;5.776;2022-08-03T03:30:50;25.90;90.20
36990;DHT22;22898;52.102;5.776;2022-08-03T03:33:16;25.90;90.00
36990;DHT22;22898;52.102;5.776;2022-08-03T03:35:42;25.90;90.10
36990;DHT22;22898;52.102;5.776;2022-08-03T03:38:11;26.00;90.00
36990;DHT22;22898;52.102;5.776;2022-08-03T03:40:37;25.90;90.10
36990;DHT22;22898;52.102;5.776;2022-08-03T03:43:07;25.90;90.00
36990;DHT22;22898;52.102;5.776;2022-08-03T03:45:34;25.90;90.00
36990;DHT22;22898;52.102;5.776;2022-08-03T03:48:04;25.90;90.00
36990;DHT22;22898;52.102;5.776;2022-08-03T03:50:34;25.90;90.00
36990;DHT22;22898;52.102;5.776;2022-08-03T03:53:03;25.90;90.10
36990;DHT22;22898;52.102;5.776;2022-08-03T03:55:29;25.90;89.40
36990;DHT22;22898;52.102;5.776;2022-08-03T03:57:55;25.90;88.60
36990;DHT22;22898;52.102;5.776;2022-08-03T04:00:21;26.00;88.20
36990;DHT22;22898;52.102;5.776;2022-08-03T04:02:47;26.00;88.30
36990;DHT22;22898;52.102;5.776;2022-08-03T04:05:14;25.90;88.30
36990;DHT22;22898;52.102;5.776;2022-08-03T04:08:00;25.80;88.70
36990;DHT22;22898;52.102;5.776;2022-08-03T04:13:55;25.80;89.80
36990;DHT22;22898;52.102;5.776;2022-08-03T04:16:25;25.70;90.00
36990;DHT22;22898;52.102;5.776;2022-08-03T04:18:56;25.80;89.60
36990;DHT22;22898;52.102;5.776;2022-08-03T04:21:23;25.80;89.20
36990;DHT22;22898;52.102;5.776;2022-08-03T04:23:52;25.90;88.90
36990;DHT22;22898;52.102;5.776;2022-08-03T04:26:23;25.90;88.90
36990;DHT22;22898;52.102;5.776;2022-08-03T04:28:53;25.80;89.00
36990;DHT22;22898;52.102;5.776;2022-08-03T04:31:23;25.80;89.30
36990;DHT22;22898;52.102;5.776;2022-08-03T04:33:50;25.80;89.80
36990;DHT22;22898;52.102;5.776;2022-08-03T04:36:21;25.80;89.90
36990;DHT22;22898;52.102;5.776;2022-08-03T04:41:28;25.90;89.90
36990;DHT22;22898;52.102;5.776;2022-08-03T04:43:56;25.90;89.70
36990;DHT22;22898;52.102;5.776;2022-08-03T04:46:28;26.00;89.90
36990;DHT22;22898;52.102;5.776;2022-08-03T04:48:54;26.00;89.70
36990;DHT22;22898;52.102;5.776;2022-08-03T04:51:24;26.10;89.60
36990;DHT22;22898;52.102;5.776;2022-08-03T04:53:50;26.20;89.80
36990;DHT22;22898;52.102;5.776;2022-08-03T04:56:15;26.30;90.00
36990;DHT22;22898;52.102;5.776;2022-08-03T04:58:41;26.30;89.90
36990;DHT22;22898;52.102;5.776;2022-08-03T05:01:06;26.40;90.00
36990;DHT22;22898;52.102;5.776;2022-08-03T05:03:32;26.40;90.00
36990;DHT22;22898;52.102;5.776;2022-08-03T05:05:58;26.50;90.00
36990;DHT22;22898;52.102;5.776;2022-08-03T05:08:23;26.70;90.00
36990;DHT22;22898;52.102;5.776;2022-08-03T05:10:49;26.70;90.00
36990;DHT22;22898;52.102;5.776;2022-08-03T05:13:14;26.70;90.00
36990;DHT22;22898;52.102;5.776;2022-08-03T05:15:40;26.80;90.00
36990;DHT22;22898;52.102;5.776;2022-08-03T05:18:08;26.80;89.90
36990;DHT22;22898;52.102;5.776;2022-08-03T05:20:34;26.90;89.80
36990;DHT22;22898;52.102;5.776;2022-08-03T05:22:59;26.90;89.90
36990;DHT22;22898;52.102;5.776;2022-08-03T05:25:26;26.90;89.80
36990;DHT22;22898;52.102;5.776;2022-08-03T05:27:52;27.00;89.70
36990;DHT22;22898;52.102;5.776;2022-08-03T05:30:18;27.00;89.60
36990;DHT22;22898;52.102;5.776;2022-08-03T05:32:43;27.00;89.50
36990;DHT22;22898;52.102;5.776;2022-08-03T05:35:09;27.10;89.50
36990;DHT22;22898;52.102;5.776;2022-08-03T05:37:35;27.20;89.40
36990;DHT22;22898;52.102;5.776;2022-08-03T05:40:01;27.20;89.80
36990;DHT22;22898;52.102;5.776;2022-08-03T05:42:26;27.30;89.10
36990;DHT22;22898;52.102;5.776;2022-08-03T05:44:52;27.40;89.10
36990;DHT22;22898;52.102;5.776;2022-08-03T05:47:17;27.90;88.20
36990;DHT22;22898;52.102;5.776;2022-08-03T05:49:43;28.60;85.20
36990;DHT22;22898;52.102;5.776;2022-08-03T05:52:12;29.00;83.80
36990;DHT22;22898;52.102;5.776;2022-08-03T05:54:37;28.70;84.50
36990;DHT22;22898;52.102;5.776;2022-08-03T05:57:03;28.20;86.30
36990;DHT22;22898;52.102;5.776;2022-08-03T05:59:28;27.90;87.00
36990;DHT22;22898;52.102;5.776;2022-08-03T06:01:54;27.80;87.80
36990;DHT22;22898;52.102;5.776;2022-08-03T06:04:22;27.40;88.90
36990;DHT22;22898;52.102;5.776;2022-08-03T06:06:48;27.50;89.40
36990;DHT22;22898;52.102;5.776;2022-08-03T06:09:15;27.50;88.50
36990;DHT22;22898;52.102;5.776;2022-08-03T06:11:41;27.40;89.10
36990;DHT22;22898;52.102;5.776;2022-08-03T06:14:07;27.30;89.30
36990;DHT22;22898;52.102;5.776;2022-08-03T06:16:32;27.20;90.00
36990;DHT22;22898;52.102;5.776;2022-08-03T06:18:58;27.20;90.00
36990;DHT22;22898;52.102;5.776;2022-08-03T06:21:24;26.90;90.20
36990;DHT22;22898;52.102;5.776;2022-08-03T06:23:49;26.60;90.70
36990;DHT22;22898;52.102;5.776;2022-08-03T06:26:15;26.50;90.90
36990;DHT22;22898;52.102;5.776;2022-08-03T06:28:43;26.50;90.90
36990;DHT22;22898;52.102;5.776;2022-08-03T06:31:08;26.20;91.50
36990;DHT22;22898;52.102;5.776;2022-08-03T06:33:34;26.50;91.20
36990;DHT22;22898;52.102;5.776;2022-08-03T06:35:59;26.50;90.90
36990;DHT22;22898;52.102;5.776;2022-08-03T06:38:25;26.40;91.10
36990;DHT22;22898;52.102;5.776;2022-08-03T06:40:51;26.50;90.90
36990;DHT22;22898;52.102;5.776;2022-08-03T06:43:16;26.60;90.80
36990;DHT22;22898;52.102;5.776;2022-08-03T06:45:42;26.50;90.90
36990;DHT22;22898;52.102;5.776;2022-08-03T06:48:09;26.00;91.70
36990;DHT22;22898;52.102;5.776;2022-08-03T06:50:37;25.80;92.40
36990;DHT22;22898;52.102;5.776;2022-08-03T06:53:03;26.20;91.90
36990;DHT22;22898;52.102;5.776;2022-08-03T06:55:29;26.30;91.40
36990;DHT22;22898;52.102;5.776;2022-08-03T06:57:55;26.40;91.50
36990;DHT22;22898;52.102;5.776;2022-08-03T07:00:23;26.30;91.00
36990;DHT22;22898;52.102;5.776;2022-08-03T07:02:49;25.80;92.10
36990;DHT22;22898;52.102;5.776;2022-08-03T07:05:15;26.30;91.60
36990;DHT22;22898;52.102;5.776;2022-08-03T07:07:41;26.50;91.30
36990;DHT22;22898;52.102;5.776;2022-08-03T07:10:08;27.00;90.50
36990;DHT22;22898;52.102;5.776;2022-08-03T07:12:34;27.30;90.20
36990;DHT22;22898;52.102;5.776;2022-08-03T07:15:01;27.60;89.30
36990;DHT22;22898;52.102;5.776;2022-08-03T07:17:28;27.50;90.00
36990;DHT22;22898;52.102;5.776;2022-08-03T07:19:54;27.20;90.20
36990;DHT22;22898;52.102;5.776;2022-08-03T07:22:22;27.30;90.30
36990;DHT22;22898;52.102;5.776;2022-08-03T07:24:48;27.10;90.20
36990;DHT22;22898;52.102;5.776;2022-08-03T07:27:15;26.40;91.20
36990;DHT22;22898;52.102;5.776;2022-08-03T07:29:41;26.20;91.70
36990;DHT22;22898;52.102;5.776;2022-08-03T07:32:06;26.10;91.70
36990;DHT22;22898;52.102;5.776;2022-08-03T07:34:32;26.00;91.80
36990;DHT22;22898;52.102;5.776;2022-08-03T07:36:58;26.30;91.70
36990;DHT22;22898;52.102;5.776;2022-08-03T07:39:23;26.70;91.10
36990;DHT22;22898;52.102;5.776;2022-08-03T07:41:49;27.20;90.60
36990;DHT22;22898;52.102;5.776;2022-08-03T07:44:16;27.60;89.60
36990;DHT22;22898;52.102;5.776;2022-08-03T07:46:42;27.50;89.70
36990;DHT22;22898;52.102;5.776;2022-08-03T07:49:08;27.60;89.50
36990;DHT22;22898;52.102;5.776;2022-08-03T07:51:34;28.00;88.90
36990;DHT22;22898;52.102;5.776;2022-08-03T07:53:59;28.40;88.60
36990;DHT22;22898;52.102;5.776;2022-08-03T07:56:25;28.80;86.40
36990;DHT22;22898;52.102;5.776;2022-08-03T07:58:51;28.90;85.90
36990;DHT22;22898;52.102;5.776;2022-08-03T08:01:17;29.00;85.60
36990;DHT22;22898;52.102;5.776;2022-08-03T08:03:44;28.90;84.90
36990;DHT22;22898;52.102;5.776;2022-08-03T08:06:10;28.20;86.50
36990;DHT22;22898;52.102;5.776;2022-08-03T08:08:37;28.20;86.70
36990;DHT22;22898;52.102;5.776;2022-08-03T08:11:03;28.30;87.20
36990;DHT22;22898;52.102;5.776;2022-08-03T08:13:29;28.20;87.60
36990;DHT22;22898;52.102;5.776;2022-08-03T08:15:55;28.40;87.40
36990;DHT22;22898;52.102;5.776;2022-08-03T08:18:21;28.90;85.80
36990;DHT22;22898;52.102;5.776;2022-08-03T08:20:48;29.30;84.20
36990;DHT22;22898;52.102;5.776;2022-08-03T08:23:14;29.30;84.00
36990;DHT22;22898;52.102;5.776;2022-08-03T08:25:40;29.30;83.90
36990;DHT22;22898;52.102;5.776;2022-08-03T08:28:05;29.30;84.30
36990;DHT22;22898;52.102;5.776;2022-08-03T08:30:32;29.10;83.60
36990;DHT22;22898;52.102;5.776;2022-08-03T08:32:58;28.80;85.40
36990;DHT22;22898;52.102;5.776;2022-08-03T08:35:24;29.00;84.20
36990;DHT22;22898;52.102;5.776;2022-08-03T08:37:50;29.10;83.20
36990;DHT22;22898;52.102;5.776;2022-08-03T08:40:16;29.00;82.60
36990;DHT22;22898;52.102;5.776;2022-08-03T08:42:44;28.40;84.30
36990;DHT22;22898;52.102;5.776;2022-08-03T08:45:11;28.30;84.20
36990;DHT22;22898;52.102;5.776;2022-08-03T08:47:43;28.40;84.60
36990;DHT22;22898;52.102;5.776;2022-08-03T08:50:09;28.70;83.80
36990;DHT22;22898;52.102;5.776;2022-08-03T08:52:36;28.80;84.00
36990;DHT22;22898;52.102;5.776;2022-08-03T08:55:06;28.90;83.70
36990;DHT22;22898;52.102;5.776;2022-08-03T08:57:37;29.20;81.60
36990;DHT22;22898;52.102;5.776;2022-08-03T09:00:09;29.40;81.00
36990;DHT22;22898;52.102;5.776;2022-08-03T09:02:38;29.60;81.20
36990;DHT22;22898;52.102;5.776;2022-08-03T09:07:38;29.20;81.20
36990;DHT22;22898;52.102;5.776;2022-08-03T09:10:05;29.30;81.30
36990;DHT22;22898;52.102;5.776;2022-08-03T09:12:42;29.10;82.10
36990;DHT22;22898;52.102;5.776;2022-08-03T09:15:24;29.30;81.90
36990;DHT22;22898;52.102;5.776;2022-08-03T09:17:52;29.80;79.70
36990;DHT22;22898;52.102;5.776;2022-08-03T09:20:19;29.90;79.80
36990;DHT22;22898;52.102;5.776;2022-08-03T09:22:59;30.00;79.30
36990;DHT22;22898;52.102;5.776;2022-08-03T09:25:44;30.20;78.50
36990;DHT22;22898;52.102;5.776;2022-08-03T09:28:16;30.70;77.20
36990;DHT22;22898;52.102;5.776;2022-08-03T09:30:45;31.10;75.50
36990;DHT22;22898;52.102;5.776;2022-08-03T09:33:22;30.80;77.10
36990;DHT22;22898;52.102;5.776;2022-08-03T09:35:48;30.60;76.20
36990;DHT22;22898;52.102;5.776;2022-08-03T09:38:18;29.90;78.80
36990;DHT22;22898;52.102;5.776;2022-08-03T09:40:44;29.00;80.40
36990;DHT22;22898;52.102;5.776;2022-08-03T09:43:10;28.80;82.30
36990;DHT22;22898;52.102;5.776;2022-08-03T09:45:38;28.90;82.10
36990;DHT22;22898;52.102;5.776;2022-08-03T09:48:26;29.50;81.30
36990;DHT22;22898;52.102;5.776;2022-08-03T09:51:01;30.30;78.30
36990;DHT22;22898;52.102;5.776;2022-08-03T09:53:28;30.70;76.20
36990;DHT22;22898;52.102;5.776;2022-08-03T09:55:59;30.50;76.90
36990;DHT22;22898;52.102;5.776;2022-08-03T09:58:26;30.90;75.30
36990;DHT22;22898;52.102;5.776;2022-08-03T10:01:10;31.30;74.70
36990;DHT22;22898;52.102;5.776;2022-08-03T10:03:38;31.90;74.40
36990;DHT22;22898;52.102;5.776;2022-08-03T10:06:18;31.80;73.20
36990;DHT22;22898;52.102;5.776;2022-08-03T10:09:04;32.00;72.80
36990;DHT22;22898;52.102;5.776;2022-08-03T10:11:31;31.90;71.70
36990;DHT22;22898;52.102;5.776;2022-08-03T10:14:03;31.90;72.70
36990;DHT22;22898;52.102;5.776;2022-08-03T10:16:34;31.90;72.50
36990;DHT22;22898;52.102;5.776;2022-08-03T10:19:04;32.40;71.50
36990;DHT22;22898;52.102;5.776;2022-08-03T10:21:37;32.50;70.20
36990;DHT22;22898;52.102;5.776;2022-08-03T10:24:06;32.20;69.90
36990;DHT22;22898;52.102;5.776;2022-08-03T10:26:33;31.60;71.70
36990;DHT22;22898;52.102;5.776;2022-08-03T10:29:01;31.50;71.80
36990;DHT22;22898;52.102;5.776;2022-08-03T10:31:34;31.40;72.00
36990;DHT22;22898;52.102;5.776;2022-08-03T10:34:04;30.80;73.30
36990;DHT22;22898;52.102;5.776;2022-08-03T10:36:32;30.40;75.20
36990;DHT22;22898;52.102;5.776;2022-08-03T10:38:59;30.80;72.70
36990;DHT22;22898;52.102;5.776;2022-08-03T10:41:31;31.50;72.00
36990;DHT22;22898;52.102;5.776;2022-08-03T10:44:04;32.10;70.50
36990;DHT22;22898;52.102;5.776;2022-08-03T10:46:32;32.30;69.80
36990;DHT22;22898;52.102;5.776;2022-08-03T10:48:59;32.70;70.10
36990;DHT22;22898;52.102;5.776;2022-08-03T10:51:26;33.20;67.30
36990;DHT22;22898;52.102;5.776;2022-08-03T10:53:57;33.20;66.70
36990;DHT22;22898;52.102;5.776;2022-08-03T10:59:16;32.20;67.60
36990;DHT22;22898;52.102;5.776;2022-08-03T11:01:55;31.80;69.60
36990;DHT22;22898;52.102;5.776;2022-08-03T11:04:23;31.90;69.00
36990;DHT22;22898;52.102;5.776;2022-08-03T11:09:41;32.20;69.60
36990;DHT22;22898;52.102;5.776;2022-08-03T11:12:26;32.50;69.10
36990;DHT22;22898;52.102;5.776;2022-08-03T11:14:53;32.80;68.20
36990;DHT22;22898;52.102;5.776;2022-08-03T11:17:19;32.90;67.50
36990;DHT22;22898;52.102;5.776;2022-08-03T11:19:47;32.50;68.50
36990;DHT22;22898;52.102;5.776;2022-08-03T11:22:13;32.40;68.20
36990;DHT22;22898;52.102;5.776;2022-08-03T11:27:18;32.40;68.20
36990;DHT22;22898;52.102;5.776;2022-08-03T11:35:19;33.20;66.80
36990;DHT22;22898;52.102;5.776;2022-08-03T11:40:43;32.80;67.40
36990;DHT22;22898;52.102;5.776;2022-08-03T11:46:06;33.20;66.70
36990;DHT22;22898;52.102;5.776;2022-08-03T11:48:40;33.20;66.20
36990;DHT22;22898;52.102;5.776;2022-08-03T11:51:29;32.90;66.90
36990;DHT22;22898;52.102;5.776;2022-08-03T11:54:01;33.30;66.20
36990;DHT22;22898;52.102;5.776;2022-08-03T11:56:28;33.40;63.20
36990;DHT22;22898;52.102;5.776;2022-08-03T11:59:07;33.80;62.50
36990;DHT22;22898;52.102;5.776;2022-08-03T12:01:32;33.90;61.90
36990;DHT22;22898;52.102;5.776;2022-08-03T12:04:02;34.00;62.50
36990;DHT22;22898;52.102;5.776;2022-08-03T12:06:28;33.80;60.90
36990;DHT22;22898;52.102;5.776;2022-08-03T12:08:54;33.40;62.00
36990;DHT22;22898;52.102;5.776;2022-08-03T12:11:22;32.70;63.70
36990;DHT22;22898;52.102;5.776;2022-08-03T12:13:49;33.20;61.40
36990;DHT22;22898;52.102;5.776;2022-08-03T12:16:24;33.50;61.70
36990;DHT22;22898;52.102;5.776;2022-08-03T12:19:01;33.40;61.80
36990;DHT22;22898;52.102;5.776;2022-08-03T12:21:28;33.70;61.40
36990;DHT22;22898;52.102;5.776;2022-08-03T12:23:58;33.40;61.90
36990;DHT22;22898;52.102;5.776;2022-08-03T12:26:25;33.00;63.00
36990;DHT22;22898;52.102;5.776;2022-08-03T12:28:51;33.40;62.00
36990;DHT22;22898;52.102;5.776;2022-08-03T12:31:17;33.80;61.80
36990;DHT22;22898;52.102;5.776;2022-08-03T12:34:03;34.10;60.00
36990;DHT22;22898;52.102;5.776;2022-08-03T12:36:32;33.70;60.80
36990;DHT22;22898;52.102;5.776;2022-08-03T12:39:05;33.60;61.10
36990;DHT22;22898;52.102;5.776;2022-08-03T12:41:36;33.60;61.50
36990;DHT22;22898;52.102;5.776;2022-08-03T12:44:06;33.70;60.30
36990;DHT22;22898;52.102;5.776;2022-08-03T12:46:35;33.80;59.20
36990;DHT22;22898;52.102;5.776;2022-08-03T12:49:08;33.80;59.50
36990;DHT22;22898;52.102;5.776;2022-08-03T12:51:58;33.90;59.70
36990;DHT22;22898;52.102;5.776;2022-08-03T12:54:28;34.10;58.80
36990;DHT22;22898;52.102;5.776;2022-08-03T12:57:03;34.20;58.40
36990;DHT22;22898;52.102;5.776;2022-08-03T12:59:33;34.30;58.50
36990;DHT22;22898;52.102;5.776;2022-08-03T13:01:59;34.00;59.20
36990;DHT22;22898;52.102;5.776;2022-08-03T13:04:33;33.80;59.10
36990;DHT22;22898;52.102;5.776;2022-08-03T13:07:06;33.70;59.60
36990;DHT22;22898;52.102;5.776;2022-08-03T13:09:50;33.90;59.20
36990;DHT22;22898;52.102;5.776;2022-08-03T13:12:27;33.80;59.20
36990;DHT22;22898;52.102;5.776;2022-08-03T13:14:55;33.80;59.60
36990;DHT22;22898;52.102;5.776;2022-08-03T13:17:22;34.00;60.60
36990;DHT22;22898;52.102;5.776;2022-08-03T13:19:49;34.00;60.10
36990;DHT22;22898;52.102;5.776;2022-08-03T13:22:22;34.00;60.30
36990;DHT22;22898;52.102;5.776;2022-08-03T13:24:50;34.00;61.60
36990;DHT22;22898;52.102;5.776;2022-08-03T13:27:16;34.10;60.50
36990;DHT22;22898;52.102;5.776;2022-08-03T13:29:42;34.00;62.30
36990;DHT22;22898;52.102;5.776;2022-08-03T13:32:09;34.30;61.90
36990;DHT22;22898;52.102;5.776;2022-08-03T13:34:35;34.40;61.60
36990;DHT22;22898;52.102;5.776;2022-08-03T13:37:01;34.80;61.10
36990;DHT22;22898;52.102;5.776;2022-08-03T13:39:27;34.70;61.60
36990;DHT22;22898;52.102;5.776;2022-08-03T13:41:53;34.90;61.40
36990;DHT22;22898;52.102;5.776;2022-08-03T13:44:19;35.20;60.70
36990;DHT22;22898;52.102;5.776;2022-08-03T13:46:45;35.10;60.60
36990;DHT22;22898;52.102;5.776;2022-08-03T13:49:10;35.30;60.60
36990;DHT22;22898;52.102;5.776;2022-08-03T13:51:36;35.30;61.30
36990;DHT22;22898;52.102;5.776;2022-08-03T13:54:02;35.30;61.20
36990;DHT22;22898;52.102;5.776;2022-08-03T13:56:29;35.00;61.70
36990;DHT22;22898;52.102;5.776;2022-08-03T13:58:55;35.10;61.70
36990;DHT22;22898;52.102;5.776;2022-08-03T14:01:21;35.10;61.90
36990;DHT22;22898;52.102;5.776;2022-08-03T14:03:48;35.20;62.10
36990;DHT22;22898;52.102;5.776;2022-08-03T14:06:17;34.90;62.00
36990;DHT22;22898;52.102;5.776;2022-08-03T14:08:43;34.50;63.40
36990;DHT22;22898;52.102;5.776;2022-08-03T14:11:10;34.40;63.50
36990;DHT22;22898;52.102;5.776;2022-08-03T14:13:36;34.10;64.40
36990;DHT22;22898;52.102;5.776;2022-08-03T14:16:02;33.60;65.30
36990;DHT22;22898;52.102;5.776;2022-08-03T14:18:27;34.00;64.80
36990;DHT22;22898;52.102;5.776;2022-08-03T14:20:53;34.30;64.30
36990;DHT22;22898;52.102;5.776;2022-08-03T14:23:19;34.00;64.60
36990;DHT22;22898;52.102;5.776;2022-08-03T14:25:44;33.80;65.70
36990;DHT22;22898;52.102;5.776;2022-08-03T14:28:10;33.80;65.40
36990;DHT22;22898;52.102;5.776;2022-08-03T14:30:36;33.90;65.40
36990;DHT22;22898;52.102;5.776;2022-08-03T14:33:02;33.80;65.90
36990;DHT22;22898;52.102;5.776;2022-08-03T14:35:28;34.10;65.70
36990;DHT22;22898;52.102;5.776;2022-08-03T14:37:53;34.60;64.60
36990;DHT22;22898;52.102;5.776;2022-08-03T14:40:19;34.80;63.70
36990;DHT22;22898;52.102;5.776;2022-08-03T14:42:45;34.90;63.20
36990;DHT22;22898;52.102;5.776;2022-08-03T14:45:11;35.00;63.40
36990;DHT22;22898;52.102;5.776;2022-08-03T14:47:38;35.00;63.00
36990;DHT22;22898;52.102;5.776;2022-08-03T14:50:04;35.30;62.50
36990;DHT22;22898;52.102;5.776;2022-08-03T14:52:31;35.30;62.50
36990;DHT22;22898;52.102;5.776;2022-08-03T14:54:58;35.30;63.40
36990;DHT22;22898;52.102;5.776;2022-08-03T14:57:24;35.50;61.50
36990;DHT22;22898;52.102;5.776;2022-08-03T14:59:50;35.20;62.40
36990;DHT22;22898;52.102;5.776;2022-08-03T15:02:16;35.20;62.00
36990;DHT22;22898;52.102;5.776;2022-08-03T15:04:41;34.80;63.50
36990;DHT22;22898;52.102;5.776;2022-08-03T15:07:07;34.80;64.10
36990;DHT22;22898;52.102;5.776;2022-08-03T15:09:33;35.00;63.60
36990;DHT22;22898;52.102;5.776;2022-08-03T15:11:59;35.10;63.30
36990;DHT22;22898;52.102;5.776;2022-08-03T15:14:25;34.70;63.90
36990;DHT22;22898;52.102;5.776;2022-08-03T15:16:50;34.80;63.50
36990;DHT22;22898;52.102;5.776;2022-08-03T15:19:16;35.20;62.70
36990;DHT22;22898;52.102;5.776;2022-08-03T15:21:42;35.40;62.00
36990;DHT22;22898;52.102;5.776;2022-08-03T15:24:07;35.50;62.30
36990;DHT22;22898;52.102;5.776;2022-08-03T15:26:33;35.70;62.20
36990;DHT22;22898;52.102;5.776;2022-08-03T15:28:59;35.90;62.00
36990;DHT22;22898;52.102;5.776;2022-08-03T15:31:24;36.00;62.30
36990;DHT22;22898;52.102;5.776;2022-08-03T15:33:50;35.90;62.20
36990;DHT22;22898;52.102;5.776;2022-08-03T15:36:17;35.70;61.10
36990;DHT22;22898;52.102;5.776;2022-08-03T15:38:43;35.30;61.90
36990;DHT22;22898;52.102;5.776;2022-08-03T15:41:09;35.60;61.60
36990;DHT22;22898;52.102;5.776;2022-08-03T15:43:35;35.60;61.10
36990;DHT22;22898;52.102;5.776;2022-08-03T15:46:01;35.20;62.30
36990;DHT22;22898;52.102;5.776;2022-08-03T15:48:27;35.10;63.20
36990;DHT22;22898;52.102;5.776;2022-08-03T15:50:52;35.20;63.50
36990;DHT22;22898;52.102;5.776;2022-08-03T15:53:19;35.50;62.50
36990;DHT22;22898;52.102;5.776;2022-08-03T15:55:45;35.60;61.30
36990;DHT22;22898;52.102;5.776;2022-08-03T15:58:12;35.40;62.10
36990;DHT22;22898;52.102;5.776;2022-08-03T16:00:38;35.50;62.00
36990;DHT22;22898;52.102;5.776;2022-08-03T16:03:04;35.30;61.90
36990;DHT22;22898;52.102;5.776;2022-08-03T16:05:30;35.50;61.60
36990;DHT22;22898;52.102;5.776;2022-08-03T16:07:55;35.70;61.20
36990;DHT22;22898;52.102;5.776;2022-08-03T16:10:21;36.10;60.50
36990;DHT22;22898;52.102;5.776;2022-08-03T16:12:53;36.30;60.20
36990;DHT22;22898;52.102;5.776;2022-08-03T16:15:19;36.10;60.10
36990;DHT22;22898;52.102;5.776;2022-08-03T16:17:44;36.10;60.00
36990;DHT22;22898;52.102;5.776;2022-08-03T16:20:11;36.00;60.10